sensor_id;sensor_type;location;lat;lon;timestamp;P1;durP1;ratioP1;P2;durP2;ratioP2
46607;SDS011;32330;51.936;7.184;2023-08-08T03:49:00;7.85;;;5.35;;
46607;SDS011;32330;51.936;7.184;2023-08-08T03:51:30;9.77;;;5.93;;
46607;SDS011;32330;51.936;7.184;2023-08-08T03:53:57;10.35;;;5.95;;
46607;SDS011;32330;51.936;7.184;2023-08-08T03:56:24;9.15;;;5.38;;
46607;SDS011;32330;51.936;7.184;2023-08-08T03:58:53;9.30;;;5.63;;
46607;SDS011;32330;51.936;7.184;2023-08-08T04:01:20;15.57;;;7.15;;
46607;SDS011;32330;51.936;7.184;2023-08-08T04:03:47;9.63;;;6.15;;
46607;SDS011;32330;51.936;7.184;2023-08-08T04:06:16;10.98;;;6.25;;
46607;SDS011;32330;51.936;7.184;2023-08-08T04:08:43;9.48;;;6.75;;
46607;SDS011;32330;51.936;7.184;2023-08-08T04:11:09;10.43;;;5.20;;
46607;SDS011;32330;51.936;7.184;2023-08-08T04:13:36;8.50;;;5.28;;
46607;SDS011;32330;51.936;7.184;2023-08-08T04:16:03;6.03;;;5.43;;
46607;SDS011;32330;51.936;7.184;2023-08-08T04:18:30;7.43;;;5.38;;
46607;SDS011;32330;51.936;7.184;2023-08-08T04:20:57;10.50;;;4.88;;
46607;SDS011;32330;51.936;7.184;2023-08-08T04:23:26;7.15;;;5.20;;
46607;SDS011;32330;51.936;7.184;2023-08-08T04:25:53;6.78;;;5.10;;
46607;SDS011;32330;51.936;7.184;2023-08-08T04:28:20;9.45;;;5.30;;
46607;SDS011;32330;51.936;7.184;2023-08-08T04:30:47;7.35;;;5.35;;
46607;SDS011;32330;51.936;7.184;2023-08-08T04:33:14;7.80;;;4.88;;
46607;SDS011;32330;51.936;7.184;2023-08-08T04:35:41;10.95;;;5.80;;
46607;SDS011;32330;51.936;7.184;2023-08-08T04:38:08;8.82;;;5.10;;
46607;SDS011;32330;51.936;7.184;2023-08-08T04:40:37;8.90;;;5.68;;
46607;SDS011;32330;51.936;7.184;2023-08-08T04:43:04;7.85;;;5.13;;
46607;SDS011;32330;51.936;7.184;2023-08-08T04:45:31;8.90;;;5.28;;
46607;SDS011;32330;51.936;7.184;2023-08-08T04:47:58;10.13;;;5.78;;
46607;SDS011;32330;51.936;7.184;2023-08-08T04:50:25;10.27;;;6.38;;
46607;SDS011;32330;51.936;7.184;2023-08-08T04:52:53;10.18;;;6.05;;
46607;SDS011;32330;51.936;7.184;2023-08-08T04:55:20;10.27;;;6.03;;
46607;SDS011;32330;51.936;7.184;2023-08-08T04:57:48;10.30;;;5.80;;
46607;SDS011;32330;51.936;7.184;2023-08-08T05:00:16;12.05;;;6.05;;
46607;SDS011;32330;51.936;7.184;2023-08-08T05:02:43;12.43;;;5.97;;
46607;SDS011;32330;51.936;7.184;2023-08-08T05:05:10;12.43;;;7.65;;
46607;SDS011;32330;51.936;7.184;2023-08-08T05:07:37;10.13;;;6.55;;
46607;SDS011;32330;51.936;7.184;2023-08-08T05:10:04;10.52;;;6.60;;
46607;SDS011;32330;51.936;7.184;2023-08-08T05:12:31;11.07;;;6.30;;
46607;SDS011;32330;51.936;7.184;2023-08-08T05:15:00;13.32;;;7.82;;
46607;SDS011;32330;51.936;7.184;2023-08-08T05:17:29;13.98;;;6.57;;
46607;SDS011;32330;51.936;7.184;2023-08-08T05:19:56;15.05;;;7.22;;
46607;SDS011;32330;51.936;7.184;2023-08-08T05:22:23;10.70;;;6.93;;
46607;SDS011;32330;51.936;7.184;2023-08-08T05:24:50;10.43;;;7.75;;
46607;SDS011;32330;51.936;7.184;2023-08-08T05:27:17;11.90;;;7.53;;
46607;SDS011;32330;51.936;7.184;2023-08-08T05:29:44;11.80;;;7.32;;
46607;SDS011;32330;51.936;7.184;2023-08-08T05:32:12;13.82;;;8.38;;
46607;SDS011;32330;51.936;7.184;2023-08-08T05:34:39;13.00;;;7.15;;
46607;SDS011;32330;51.936;7.184;2023-08-08T05:37:06;11.05;;;7.25;;
46607;SDS011;32330;51.936;7.184;2023-08-08T05:39:33;12.20;;;7.47;;
46607;SDS011;32330;51.936;7.184;2023-08-08T05:42:00;14.70;;;7.53;;
46607;SDS011;32330;51.936;7.184;2023-08-08T05:44:27;13.63;;;9.35;;
46607;SDS011;32330;51.936;7.184;2023-08-08T05:46:54;14.10;;;8.68;;
46607;SDS011;32330;51.936;7.184;2023-08-08T05:49:22;18.15;;;10.20;;
46607;SDS011;32330;51.936;7.184;2023-08-08T05:51:49;13.02;;;9.10;;
46607;SDS011;32330;51.936;7.184;2023-08-08T05:54:16;13.05;;;9.68;;
46607;SDS011;32330;51.936;7.184;2023-08-08T05:56:43;13.07;;;10.20;;
46607;SDS011;32330;51.936;7.184;2023-08-08T05:59:10;15.95;;;10.93;;
46607;SDS011;32330;51.936;7.184;2023-08-08T06:01:37;22.50;;;10.70;;
46607;SDS011;32330;51.936;7.184;2023-08-08T06:04:04;16.40;;;10.35;;
46607;SDS011;32330;51.936;7.184;2023-08-08T06:06:32;13.93;;;10.93;;
46607;SDS011;32330;51.936;7.184;2023-08-08T06:08:59;15.90;;;10.63;;
46607;SDS011;32330;51.936;7.184;2023-08-08T06:11:26;17.27;;;11.55;;
46607;SDS011;32330;51.936;7.184;2023-08-08T06:13:53;14.45;;;10.07;;
46607;SDS011;32330;51.936;7.184;2023-08-08T06:16:21;18.48;;;11.45;;
46607;SDS011;32330;51.936;7.184;2023-08-08T06:18:48;13.13;;;10.27;;
46607;SDS011;32330;51.936;7.184;2023-08-08T06:21:15;19.60;;;11.82;;
46607;SDS011;32330;51.936;7.184;2023-08-08T06:23:43;17.00;;;9.52;;
46607;SDS011;32330;51.936;7.184;2023-08-08T06:26:10;13.10;;;10.05;;
46607;SDS011;32330;51.936;7.184;2023-08-08T06:28:37;14.07;;;9.48;;
46607;SDS011;32330;51.936;7.184;2023-08-08T06:31:04;14.48;;;9.55;;
46607;SDS011;32330;51.936;7.184;2023-08-08T06:33:31;14.23;;;9.73;;
46607;SDS011;32330;51.936;7.184;2023-08-08T06:35:58;13.25;;;8.85;;
46607;SDS011;32330;51.936;7.184;2023-08-08T06:38:25;12.20;;;8.98;;
46607;SDS011;32330;51.936;7.184;2023-08-08T06:40:54;13.27;;;9.60;;
46607;SDS011;32330;51.936;7.184;2023-08-08T06:43:22;13.18;;;9.38;;
46607;SDS011;32330;51.936;7.184;2023-08-08T06:45:49;11.77;;;9.60;;
46607;SDS011;32330;51.936;7.184;2023-08-08T06:48:16;12.85;;;9.85;;
46607;SDS011;32330;51.936;7.184;2023-08-08T06:50:43;15.13;;;10.30;;
46607;SDS011;32330;51.936;7.184;2023-08-08T06:53:10;13.05;;;11.25;;
46607;SDS011;32330;51.936;7.184;2023-08-08T06:55:37;12.45;;;9.07;;
46607;SDS011;32330;51.936;7.184;2023-08-08T06:58:05;13.77;;;9.57;;
46607;SDS011;32330;51.936;7.184;2023-08-08T07:00:32;20.17;;;9.93;;
46607;SDS011;32330;51.936;7.184;2023-08-08T07:02:59;15.80;;;9.43;;
46607;SDS011;32330;51.936;7.184;2023-08-08T07:05:26;11.43;;;9.35;;
46607;SDS011;32330;51.936;7.184;2023-08-08T07:07:54;11.02;;;9.77;;
46607;SDS011;32330;51.936;7.184;2023-08-08T07:10:21;13.52;;;10.00;;
46607;SDS011;32330;51.936;7.184;2023-08-08T07:12:48;11.25;;;9.70;;
46607;SDS011;32330;51.936;7.184;2023-08-08T07:15:16;18.40;;;10.90;;
46607;SDS011;32330;51.936;7.184;2023-08-08T07:17:43;18.13;;;10.65;;
46607;SDS011;32330;51.936;7.184;2023-08-08T07:20:10;17.60;;;12.40;;
46607;SDS011;32330;51.936;7.184;2023-08-08T07:22:39;13.45;;;10.05;;
46607;SDS011;32330;51.936;7.184;2023-08-08T07:25:07;15.15;;;10.05;;
46607;SDS011;32330;51.936;7.184;2023-08-08T07:27:35;13.30;;;9.70;;
46607;SDS011;32330;51.936;7.184;2023-08-08T07:30:02;16.42;;;11.10;;
46607;SDS011;32330;51.936;7.184;2023-08-08T07:32:31;16.88;;;10.20;;
46607;SDS011;32330;51.936;7.184;2023-08-08T07:34:58;15.27;;;10.25;;
46607;SDS011;32330;51.936;7.184;2023-08-08T07:37:26;15.88;;;10.13;;
46607;SDS011;32330;51.936;7.184;2023-08-08T07:39:53;16.40;;;10.75;;
46607;SDS011;32330;51.936;7.184;2023-08-08T07:42:20;16.80;;;10.68;;
46607;SDS011;32330;51.936;7.184;2023-08-08T07:44:47;16.65;;;10.95;;
46607;SDS011;32330;51.936;7.184;2023-08-08T07:47:14;11.95;;;10.02;;
46607;SDS011;32330;51.936;7.184;2023-08-08T07:49:42;13.60;;;10.55;;
46607;SDS011;32330;51.936;7.184;2023-08-08T07:52:09;17.48;;;10.40;;
46607;SDS011;32330;51.936;7.184;2023-08-08T07:54:36;14.38;;;10.27;;
46607;SDS011;32330;51.936;7.184;2023-08-08T07:57:03;16.95;;;10.27;;
46607;SDS011;32330;51.936;7.184;2023-08-08T07:59:31;14.35;;;9.93;;
46607;SDS011;32330;51.936;7.184;2023-08-08T08:01:58;15.88;;;9.18;;
46607;SDS011;32330;51.936;7.184;2023-08-08T08:04:44;14.25;;;8.55;;
46607;SDS011;32330;51.936;7.184;2023-08-08T08:07:11;14.50;;;8.50;;
46607;SDS011;32330;51.936;7.184;2023-08-08T08:09:38;12.05;;;8.75;;
46607;SDS011;32330;51.936;7.184;2023-08-08T08:12:07;9.98;;;7.38;;
46607;SDS011;32330;51.936;7.184;2023-08-08T08:14:35;12.57;;;7.40;;
46607;SDS011;32330;51.936;7.184;2023-08-08T08:17:02;9.10;;;6.22;;
46607;SDS011;32330;51.936;7.184;2023-08-08T08:19:29;7.75;;;4.75;;
46607;SDS011;32330;51.936;7.184;2023-08-08T08:21:57;11.10;;;6.72;;
46607;SDS011;32330;51.936;7.184;2023-08-08T08:24:24;14.15;;;6.10;;
46607;SDS011;32330;51.936;7.184;2023-08-08T08:26:51;10.70;;;5.50;;
46607;SDS011;32330;51.936;7.184;2023-08-08T08:29:18;8.93;;;4.30;;
46607;SDS011;32330;51.936;7.184;2023-08-08T08:31:45;8.07;;;3.65;;
46607;SDS011;32330;51.936;7.184;2023-08-08T08:34:12;8.25;;;4.72;;
46607;SDS011;32330;51.936;7.184;2023-08-08T08:36:39;8.85;;;3.58;;
46607;SDS011;32330;51.936;7.184;2023-08-08T08:39:07;7.97;;;3.40;;
46607;SDS011;32330;51.936;7.184;2023-08-08T08:41:35;6.38;;;2.50;;
46607;SDS011;32330;51.936;7.184;2023-08-08T08:44:03;8.20;;;3.53;;
46607;SDS011;32330;51.936;7.184;2023-08-08T08:46:31;6.75;;;3.00;;
46607;SDS011;32330;51.936;7.184;2023-08-08T08:48:58;6.90;;;2.30;;
46607;SDS011;32330;51.936;7.184;2023-08-08T08:51:26;5.22;;;2.33;;
46607;SDS011;32330;51.936;7.184;2023-08-08T08:53:53;4.95;;;2.38;;
46607;SDS011;32330;51.936;7.184;2023-08-08T08:56:22;6.43;;;2.10;;
46607;SDS011;32330;51.936;7.184;2023-08-08T08:58:49;6.60;;;1.88;;
46607;SDS011;32330;51.936;7.184;2023-08-08T09:01:17;7.55;;;2.58;;
46607;SDS011;32330;51.936;7.184;2023-08-08T09:03:45;7.85;;;2.10;;
46607;SDS011;32330;51.936;7.184;2023-08-08T09:06:12;4.78;;;1.83;;
46607;SDS011;32330;51.936;7.184;2023-08-08T09:08:39;4.57;;;1.75;;
46607;SDS011;32330;51.936;7.184;2023-08-08T09:11:06;4.70;;;1.85;;
46607;SDS011;32330;51.936;7.184;2023-08-08T09:13:37;4.68;;;1.50;;
46607;SDS011;32330;51.936;7.184;2023-08-08T09:16:05;6.68;;;1.40;;
46607;SDS011;32330;51.936;7.184;2023-08-08T09:18:33;3.05;;;1.48;;
46607;SDS011;32330;51.936;7.184;2023-08-08T09:21:03;3.78;;;1.55;;
46607;SDS011;32330;51.936;7.184;2023-08-08T09:23:30;4.28;;;2.08;;
46607;SDS011;32330;51.936;7.184;2023-08-08T09:25:57;2.65;;;1.23;;
46607;SDS011;32330;51.936;7.184;2023-08-08T09:28:25;4.70;;;2.33;;
46607;SDS011;32330;51.936;7.184;2023-08-08T09:30:53;4.00;;;1.67;;
46607;SDS011;32330;51.936;7.184;2023-08-08T09:33:20;5.00;;;1.42;;
46607;SDS011;32330;51.936;7.184;2023-08-08T09:35:47;5.03;;;1.40;;
46607;SDS011;32330;51.936;7.184;2023-08-08T09:38:14;5.57;;;1.60;;
46607;SDS011;32330;51.936;7.184;2023-08-08T09:40:42;4.40;;;1.27;;
46607;SDS011;32330;51.936;7.184;2023-08-08T09:43:09;2.97;;;1.00;;
46607;SDS011;32330;51.936;7.184;2023-08-08T09:45:37;4.18;;;1.20;;
46607;SDS011;32330;51.936;7.184;2023-08-08T09:48:08;4.55;;;0.93;;
46607;SDS011;32330;51.936;7.184;2023-08-08T09:50:35;4.72;;;1.10;;
46607;SDS011;32330;51.936;7.184;2023-08-08T09:53:02;4.63;;;1.70;;
46607;SDS011;32330;51.936;7.184;2023-08-08T09:55:30;4.25;;;1.20;;
46607;SDS011;32330;51.936;7.184;2023-08-08T09:57:58;3.10;;;1.58;;
46607;SDS011;32330;51.936;7.184;2023-08-08T10:00:26;2.90;;;1.13;;
46607;SDS011;32330;51.936;7.184;2023-08-08T10:02:55;3.97;;;0.98;;
46607;SDS011;32330;51.936;7.184;2023-08-08T10:05:27;5.72;;;1.20;;
46607;SDS011;32330;51.936;7.184;2023-08-08T10:07:54;5.65;;;1.38;;
46607;SDS011;32330;51.936;7.184;2023-08-08T10:10:22;2.42;;;0.93;;
46607;SDS011;32330;51.936;7.184;2023-08-08T10:12:49;5.25;;;1.10;;
46607;SDS011;32330;51.936;7.184;2023-08-08T10:15:16;2.80;;;1.10;;
46607;SDS011;32330;51.936;7.184;2023-08-08T10:17:43;2.47;;;1.20;;
46607;SDS011;32330;51.936;7.184;2023-08-08T10:20:11;3.85;;;1.20;;
46607;SDS011;32330;51.936;7.184;2023-08-08T10:22:42;4.28;;;0.98;;
46607;SDS011;32330;51.936;7.184;2023-08-08T10:25:17;3.15;;;1.00;;
46607;SDS011;32330;51.936;7.184;2023-08-08T10:27:45;4.57;;;1.65;;
46607;SDS011;32330;51.936;7.184;2023-08-08T10:30:12;5.47;;;1.17;;
46607;SDS011;32330;51.936;7.184;2023-08-08T10:32:41;3.13;;;1.40;;
46607;SDS011;32330;51.936;7.184;2023-08-08T10:35:09;4.05;;;1.27;;
46607;SDS011;32330;51.936;7.184;2023-08-08T10:37:37;4.05;;;0.93;;
46607;SDS011;32330;51.936;7.184;2023-08-08T10:40:07;3.45;;;1.00;;
46607;SDS011;32330;51.936;7.184;2023-08-08T10:42:43;3.45;;;0.85;;
46607;SDS011;32330;51.936;7.184;2023-08-08T10:45:12;4.43;;;1.10;;
46607;SDS011;32330;51.936;7.184;2023-08-08T10:47:40;3.58;;;1.00;;
46607;SDS011;32330;51.936;7.184;2023-08-08T10:50:09;3.50;;;1.02;;
46607;SDS011;32330;51.936;7.184;2023-08-08T10:52:38;2.38;;;0.88;;
46607;SDS011;32330;51.936;7.184;2023-08-08T10:55:21;3.75;;;1.10;;
46607;SDS011;32330;51.936;7.184;2023-08-08T10:57:55;2.58;;;0.95;;
46607;SDS011;32330;51.936;7.184;2023-08-08T11:00:25;4.65;;;0.93;;
46607;SDS011;32330;51.936;7.184;2023-08-08T11:02:55;1.65;;;0.80;;
46607;SDS011;32330;51.936;7.184;2023-08-08T11:05:23;2.33;;;0.82;;
46607;SDS011;32330;51.936;7.184;2023-08-08T11:07:51;4.55;;;0.98;;
46607;SDS011;32330;51.936;7.184;2023-08-08T11:10:21;2.58;;;0.80;;
46607;SDS011;32330;51.936;7.184;2023-08-08T11:12:53;3.53;;;0.80;;
46607;SDS011;32330;51.936;7.184;2023-08-08T11:15:21;4.50;;;1.08;;
46607;SDS011;32330;51.936;7.184;2023-08-08T11:17:48;1.80;;;0.70;;
46607;SDS011;32330;51.936;7.184;2023-08-08T11:20:15;4.47;;;0.80;;
46607;SDS011;32330;51.936;7.184;2023-08-08T11:22:42;5.93;;;0.90;;
46607;SDS011;32330;51.936;7.184;2023-08-08T11:25:09;1.42;;;0.73;;
46607;SDS011;32330;51.936;7.184;2023-08-08T11:27:37;4.53;;;0.80;;
46607;SDS011;32330;51.936;7.184;2023-08-08T11:30:05;1.67;;;0.70;;
46607;SDS011;32330;51.936;7.184;2023-08-08T11:32:33;4.28;;;0.95;;
46607;SDS011;32330;51.936;7.184;2023-08-08T11:35:00;2.80;;;0.55;;
46607;SDS011;32330;51.936;7.184;2023-08-08T11:37:28;2.50;;;0.60;;
46607;SDS011;32330;51.936;7.184;2023-08-08T11:39:55;2.08;;;0.60;;
46607;SDS011;32330;51.936;7.184;2023-08-08T11:42:22;2.92;;;0.77;;
46607;SDS011;32330;51.936;7.184;2023-08-08T11:44:54;1.85;;;0.80;;
46607;SDS011;32330;51.936;7.184;2023-08-08T11:47:23;3.58;;;1.02;;
46607;SDS011;32330;51.936;7.184;2023-08-08T11:49:57;3.13;;;0.90;;
46607;SDS011;32330;51.936;7.184;2023-08-08T11:52:23;4.07;;;0.70;;
46607;SDS011;32330;51.936;7.184;2023-08-08T11:54:50;2.28;;;0.77;;
46607;SDS011;32330;51.936;7.184;2023-08-08T11:57:18;2.13;;;0.70;;
46607;SDS011;32330;51.936;7.184;2023-08-08T11:59:45;3.17;;;1.15;;
46607;SDS011;32330;51.936;7.184;2023-08-08T12:02:16;1.38;;;0.68;;
46607;SDS011;32330;51.936;7.184;2023-08-08T12:04:43;2.03;;;0.50;;
46607;SDS011;32330;51.936;7.184;2023-08-08T12:07:11;2.53;;;0.60;;
46607;SDS011;32330;51.936;7.184;2023-08-08T12:09:38;1.42;;;0.60;;
46607;SDS011;32330;51.936;7.184;2023-08-08T12:12:06;1.92;;;0.50;;
46607;SDS011;32330;51.936;7.184;2023-08-08T12:14:36;2.85;;;1.42;;
46607;SDS011;32330;51.936;7.184;2023-08-08T12:17:03;2.42;;;0.77;;
46607;SDS011;32330;51.936;7.184;2023-08-08T12:19:32;3.63;;;0.98;;
46607;SDS011;32330;51.936;7.184;2023-08-08T12:21:59;1.75;;;0.80;;
46607;SDS011;32330;51.936;7.184;2023-08-08T12:24:25;2.88;;;0.60;;
46607;SDS011;32330;51.936;7.184;2023-08-08T12:26:52;2.22;;;0.70;;
46607;SDS011;32330;51.936;7.184;2023-08-08T12:29:19;8.82;;;1.02;;
46607;SDS011;32330;51.936;7.184;2023-08-08T12:31:47;2.85;;;0.95;;
46607;SDS011;32330;51.936;7.184;2023-08-08T12:34:14;4.45;;;0.85;;
46607;SDS011;32330;51.936;7.184;2023-08-08T12:36:43;2.60;;;0.82;;
46607;SDS011;32330;51.936;7.184;2023-08-08T12:39:10;1.23;;;0.68;;
46607;SDS011;32330;51.936;7.184;2023-08-08T12:41:40;1.43;;;0.60;;
46607;SDS011;32330;51.936;7.184;2023-08-08T12:44:07;1.55;;;0.60;;
46607;SDS011;32330;51.936;7.184;2023-08-08T12:46:34;1.58;;;0.60;;
46607;SDS011;32330;51.936;7.184;2023-08-08T12:49:01;5.97;;;0.80;;
46607;SDS011;32330;51.936;7.184;2023-08-08T12:51:28;1.73;;;0.60;;
46607;SDS011;32330;51.936;7.184;2023-08-08T12:53:56;3.00;;;0.98;;
46607;SDS011;32330;51.936;7.184;2023-08-08T12:56:23;0.93;;;0.60;;
46607;SDS011;32330;51.936;7.184;2023-08-08T12:58:50;3.03;;;0.90;;
46607;SDS011;32330;51.936;7.184;2023-08-08T13:01:17;3.60;;;0.90;;
46607;SDS011;32330;51.936;7.184;2023-08-08T13:03:44;4.28;;;0.85;;
46607;SDS011;32330;51.936;7.184;2023-08-08T13:06:11;4.75;;;1.00;;
46607;SDS011;32330;51.936;7.184;2023-08-08T13:08:38;1.92;;;0.70;;
46607;SDS011;32330;51.936;7.184;2023-08-08T13:11:07;1.50;;;0.80;;
46607;SDS011;32330;51.936;7.184;2023-08-08T13:13:34;2.70;;;0.77;;
46607;SDS011;32330;51.936;7.184;2023-08-08T13:16:01;2.40;;;0.75;;
46607;SDS011;32330;51.936;7.184;2023-08-08T13:18:28;3.63;;;0.65;;
46607;SDS011;32330;51.936;7.184;2023-08-08T13:20:55;4.88;;;0.70;;
46607;SDS011;32330;51.936;7.184;2023-08-08T13:23:22;3.85;;;0.88;;
46607;SDS011;32330;51.936;7.184;2023-08-08T13:25:50;1.73;;;0.60;;
46607;SDS011;32330;51.936;7.184;2023-08-08T13:28:18;3.38;;;0.70;;
46607;SDS011;32330;51.936;7.184;2023-08-08T13:30:45;1.67;;;0.70;;
46607;SDS011;32330;51.936;7.184;2023-08-08T13:33:12;3.58;;;0.80;;
46607;SDS011;32330;51.936;7.184;2023-08-08T13:35:39;5.20;;;0.77;;
46607;SDS011;32330;51.936;7.184;2023-08-08T13:38:06;2.72;;;0.80;;
46607;SDS011;32330;51.936;7.184;2023-08-08T13:40:39;2.38;;;0.63;;
46607;SDS011;32330;51.936;7.184;2023-08-08T13:43:06;1.83;;;0.80;;
46607;SDS011;32330;51.936;7.184;2023-08-08T13:45:35;1.33;;;0.77;;
46607;SDS011;32330;51.936;7.184;2023-08-08T13:48:02;3.58;;;0.63;;
46607;SDS011;32330;51.936;7.184;2023-08-08T13:50:30;4.88;;;1.50;;
46607;SDS011;32330;51.936;7.184;2023-08-08T13:52:57;3.03;;;1.00;;
46607;SDS011;32330;51.936;7.184;2023-08-08T13:55:24;2.25;;;0.80;;
46607;SDS011;32330;51.936;7.184;2023-08-08T13:57:52;2.78;;;0.88;;
46607;SDS011;32330;51.936;7.184;2023-08-08T14:00:20;1.20;;;0.60;;
46607;SDS011;32330;51.936;7.184;2023-08-08T14:02:48;1.98;;;0.80;;
46607;SDS011;32330;51.936;7.184;2023-08-08T14:05:15;2.92;;;0.82;;
46607;SDS011;32330;51.936;7.184;2023-08-08T14:07:42;3.78;;;0.98;;
46607;SDS011;32330;51.936;7.184;2023-08-08T14:10:09;3.17;;;0.90;;
46607;SDS011;32330;51.936;7.184;2023-08-08T14:12:36;1.50;;;0.73;;
46607;SDS011;32330;51.936;7.184;2023-08-08T14:15:03;4.07;;;0.80;;
46607;SDS011;32330;51.936;7.184;2023-08-08T14:17:31;2.90;;;1.02;;
46607;SDS011;32330;51.936;7.184;2023-08-08T14:20:00;2.60;;;0.70;;
46607;SDS011;32330;51.936;7.184;2023-08-08T14:22:27;2.47;;;1.05;;
46607;SDS011;32330;51.936;7.184;2023-08-08T14:24:54;3.38;;;0.80;;
46607;SDS011;32330;51.936;7.184;2023-08-08T14:27:21;2.92;;;0.95;;
46607;SDS011;32330;51.936;7.184;2023-08-08T14:29:48;3.25;;;0.80;;
46607;SDS011;32330;51.936;7.184;2023-08-08T14:32:15;1.17;;;0.57;;
46607;SDS011;32330;51.936;7.184;2023-08-08T14:34:42;2.38;;;0.70;;
46607;SDS011;32330;51.936;7.184;2023-08-08T14:37:10;4.32;;;0.93;;
46607;SDS011;32330;51.936;7.184;2023-08-08T14:39:37;1.55;;;0.70;;
46607;SDS011;32330;51.936;7.184;2023-08-08T14:42:04;1.33;;;0.50;;
46607;SDS011;32330;51.936;7.184;2023-08-08T14:44:31;2.55;;;1.40;;
46607;SDS011;32330;51.936;7.184;2023-08-08T14:46:58;2.47;;;0.93;;
46607;SDS011;32330;51.936;7.184;2023-08-08T14:49:25;2.22;;;0.68;;
46607;SDS011;32330;51.936;7.184;2023-08-08T14:51:52;1.40;;;0.90;;
46607;SDS011;32330;51.936;7.184;2023-08-08T14:54:21;2.25;;;0.63;;
46607;SDS011;32330;51.936;7.184;2023-08-08T14:56:48;2.92;;;1.02;;
46607;SDS011;32330;51.936;7.184;2023-08-08T14:59:15;1.08;;;0.57;;
46607;SDS011;32330;51.936;7.184;2023-08-08T15:01:42;2.17;;;0.85;;
46607;SDS011;32330;51.936;7.184;2023-08-08T15:04:09;2.53;;;1.30;;
46607;SDS011;32330;51.936;7.184;2023-08-08T15:06:37;3.08;;;0.88;;
46607;SDS011;32330;51.936;7.184;2023-08-08T15:09:04;4.80;;;0.90;;
46607;SDS011;32330;51.936;7.184;2023-08-08T15:11:32;2.03;;;1.33;;
46607;SDS011;32330;51.936;7.184;2023-08-08T15:13:59;2.85;;;0.93;;
46607;SDS011;32330;51.936;7.184;2023-08-08T15:16:26;3.38;;;0.77;;
46607;SDS011;32330;51.936;7.184;2023-08-08T15:18:54;2.45;;;0.80;;
46607;SDS011;32330;51.936;7.184;2023-08-08T15:21:21;1.30;;;0.65;;
46607;SDS011;32330;51.936;7.184;2023-08-08T15:23:48;1.80;;;0.75;;
46607;SDS011;32330;51.936;7.184;2023-08-08T15:26:15;2.20;;;1.00;;
46607;SDS011;32330;51.936;7.184;2023-08-08T15:28:46;2.35;;;0.82;;
46607;SDS011;32330;51.936;7.184;2023-08-08T15:31:14;2.17;;;0.68;;
46607;SDS011;32330;51.936;7.184;2023-08-08T15:33:41;2.38;;;0.88;;
46607;SDS011;32330;51.936;7.184;2023-08-08T15:36:08;2.63;;;0.90;;
46607;SDS011;32330;51.936;7.184;2023-08-08T15:38:35;1.88;;;0.98;;
46607;SDS011;32330;51.936;7.184;2023-08-08T15:41:02;2.33;;;0.90;;
46607;SDS011;32330;51.936;7.184;2023-08-08T15:43:29;2.40;;;0.98;;
46607;SDS011;32330;51.936;7.184;2023-08-08T15:45:57;3.60;;;0.93;;
46607;SDS011;32330;51.936;7.184;2023-08-08T15:48:24;2.80;;;1.13;;
46607;SDS011;32330;51.936;7.184;2023-08-08T15:50:51;2.30;;;1.42;;
46607;SDS011;32330;51.936;7.184;2023-08-08T15:53:18;3.40;;;1.38;;
46607;SDS011;32330;51.936;7.184;2023-08-08T15:55:45;2.28;;;1.13;;
46607;SDS011;32330;51.936;7.184;2023-08-08T15:58:12;2.25;;;0.80;;
46607;SDS011;32330;51.936;7.184;2023-08-08T16:00:39;2.97;;;0.88;;
46607;SDS011;32330;51.936;7.184;2023-08-08T16:03:07;1.92;;;0.95;;
46607;SDS011;32330;51.936;7.184;2023-08-08T16:05:35;3.80;;;1.83;;
46607;SDS011;32330;51.936;7.184;2023-08-08T16:08:02;2.88;;;1.00;;
46607;SDS011;32330;51.936;7.184;2023-08-08T16:10:32;1.35;;;0.88;;
46607;SDS011;32330;51.936;7.184;2023-08-08T16:12:59;2.30;;;0.80;;
46607;SDS011;32330;51.936;7.184;2023-08-08T16:15:26;2.30;;;0.80;;
46607;SDS011;32330;51.936;7.184;2023-08-08T16:17:53;1.60;;;0.95;;
46607;SDS011;32330;51.936;7.184;2023-08-08T16:23:39;2.22;;;0.70;;
46607;SDS011;32330;51.936;7.184;2023-08-08T16:26:06;1.92;;;0.82;;
46607;SDS011;32330;51.936;7.184;2023-08-08T16:28:33;2.03;;;0.80;;
46607;SDS011;32330;51.936;7.184;2023-08-08T16:31:01;2.70;;;0.98;;
46607;SDS011;32330;51.936;7.184;2023-08-08T16:33:28;2.30;;;1.00;;
46607;SDS011;32330;51.936;7.184;2023-08-08T16:35:55;2.42;;;1.15;;
46607;SDS011;32330;51.936;7.184;2023-08-08T16:38:22;2.92;;;0.90;;
46607;SDS011;32330;51.936;7.184;2023-08-08T16:40:50;1.55;;;0.80;;
46607;SDS011;32330;51.936;7.184;2023-08-08T16:43:17;2.08;;;1.20;;
46607;SDS011;32330;51.936;7.184;2023-08-08T16:45:44;1.42;;;0.80;;
46607;SDS011;32330;51.936;7.184;2023-08-08T16:48:11;1.92;;;0.75;;
46607;SDS011;32330;51.936;7.184;2023-08-08T16:50:38;3.00;;;0.80;;
46607;SDS011;32330;51.936;7.184;2023-08-08T16:53:05;2.30;;;1.00;;
46607;SDS011;32330;51.936;7.184;2023-08-08T16:55:32;2.33;;;0.73;;
46607;SDS011;32330;51.936;7.184;2023-08-08T16:58:01;2.55;;;1.05;;
46607;SDS011;32330;51.936;7.184;2023-08-08T17:00:28;2.75;;;1.35;;
46607;SDS011;32330;51.936;7.184;2023-08-08T17:02:55;3.53;;;1.05;;
46607;SDS011;32330;51.936;7.184;2023-08-08T17:05:22;1.38;;;0.80;;
46607;SDS011;32330;51.936;7.184;2023-08-08T17:07:50;4.60;;;1.77;;
46607;SDS011;32330;51.936;7.184;2023-08-08T17:10:17;2.53;;;0.90;;
46607;SDS011;32330;51.936;7.184;2023-08-08T17:12:44;1.90;;;1.00;;
46607;SDS011;32330;51.936;7.184;2023-08-08T17:15:12;1.88;;;0.80;;
46607;SDS011;32330;51.936;7.184;2023-08-08T17:17:39;3.30;;;0.85;;
46607;SDS011;32330;51.936;7.184;2023-08-08T17:20:06;1.90;;;0.95;;
46607;SDS011;32330;51.936;7.184;2023-08-08T17:22:35;1.80;;;0.82;;
46607;SDS011;32330;51.936;7.184;2023-08-08T17:25:02;1.85;;;0.70;;
46607;SDS011;32330;51.936;7.184;2023-08-08T17:27:29;1.90;;;0.98;;
46607;SDS011;32330;51.936;7.184;2023-08-08T17:30:01;2.22;;;0.70;;
46607;SDS011;32330;51.936;7.184;2023-08-08T17:32:29;2.13;;;0.77;;
46607;SDS011;32330;51.936;7.184;2023-08-08T17:34:56;3.67;;;0.93;;
46607;SDS011;32330;51.936;7.184;2023-08-08T17:37:23;3.22;;;1.17;;
46607;SDS011;32330;51.936;7.184;2023-08-08T17:39:50;2.38;;;1.15;;
46607;SDS011;32330;51.936;7.184;2023-08-08T17:42:17;2.67;;;1.20;;
46607;SDS011;32330;51.936;7.184;2023-08-08T17:44:44;2.60;;;1.00;;
46607;SDS011;32330;51.936;7.184;2023-08-08T17:47:11;2.25;;;1.13;;
46607;SDS011;32330;51.936;7.184;2023-08-08T17:49:41;1.60;;;1.20;;
46607;SDS011;32330;51.936;7.184;2023-08-08T17:52:08;2.85;;;1.10;;
46607;SDS011;32330;51.936;7.184;2023-08-08T17:54:35;2.03;;;0.90;;
46607;SDS011;32330;51.936;7.184;2023-08-08T17:57:02;1.85;;;0.90;;
46607;SDS011;32330;51.936;7.184;2023-08-08T17:59:29;2.72;;;0.80;;
46607;SDS011;32330;51.936;7.184;2023-08-08T18:01:56;1.20;;;0.60;;
46607;SDS011;32330;51.936;7.184;2023-08-08T18:04:23;1.70;;;0.90;;
46607;SDS011;32330;51.936;7.184;2023-08-08T18:06:51;1.48;;;0.70;;
46607;SDS011;32330;51.936;7.184;2023-08-08T18:09:18;2.88;;;0.88;;
46607;SDS011;32330;51.936;7.184;2023-08-08T18:11:46;4.57;;;1.10;;
46607;SDS011;32330;51.936;7.184;2023-08-08T18:14:13;2.60;;;0.75;;
46607;SDS011;32330;51.936;7.184;2023-08-08T18:16:41;1.75;;;0.80;;
46607;SDS011;32330;51.936;7.184;2023-08-08T18:19:08;1.70;;;0.93;;
46607;SDS011;32330;51.936;7.184;2023-08-08T18:21:35;1.90;;;0.73;;
46607;SDS011;32330;51.936;7.184;2023-08-08T18:24:04;3.65;;;1.20;;
46607;SDS011;32330;51.936;7.184;2023-08-08T18:26:32;2.35;;;0.90;;
46607;SDS011;32330;51.936;7.184;2023-08-08T18:28:59;3.22;;;1.10;;
46607;SDS011;32330;51.936;7.184;2023-08-08T18:31:25;2.60;;;0.80;;
46607;SDS011;32330;51.936;7.184;2023-08-08T18:33:56;2.72;;;1.00;;
46607;SDS011;32330;51.936;7.184;2023-08-08T18:36:24;3.85;;;0.90;;